Time;durP1;ratioP1;P1;durP2;ratioP2;P2;SDS_P1;SDS_P2;PMS_P1;PMS_P2;Temp;Humidity;BMP_temperature;BMP_pressure;BME280_temperature;BME280_humidity;BME280_pressure;Samples;Min_cycle;Max_cycle;Signal;HPM_P1;HPM_P2
2023/01/24 00:00:33;;;;;;;7.22;4.32;;;3.50;99.90;;;;;;10176751;28;20508;-67
2023/01/24 00:05:24;;;;;;;8.73;5.22;;;3.50;99.90;;;;;;10179825;28;20036;-69
2023/01/24 00:10:15;;;;;;;12.13;4.82;;;3.50;99.90;;;;;;10191420;28;20373;-66
2023/01/24 00:15:06;;;;;;;13.02;4.97;;;3.50;99.90;;;;;;10192121;28;20530;-72
2023/01/24 00:19:57;;;;;;;12.18;5.30;;;3.50;99.90;;;;;;10191516;28;20466;-68
2023/01/24 00:24:48;;;;;;;14.88;6.05;;;3.50;99.90;;;;;;10184006;28;20130;-65
2023/01/24 00:29:38;;;;;;;10.95;5.18;;;3.50;99.90;;;;;;10181394;28;20059;-66
2023/01/24 00:34:29;;;;;;;10.88;4.85;;;3.50;99.90;;;;;;10212377;28;20038;-70
2023/01/24 00:39:20;;;;;;;12.18;5.00;;;3.50;99.90;;;;;;10206887;28;20035;-67
2023/01/24 00:44:11;;;;;;;12.38;5.15;;;3.50;99.90;;;;;;10181981;28;20226;-63
2023/01/24 00:49:02;;;;;;;11.13;5.10;;;3.50;99.90;;;;;;10178142;28;20043;-65
2023/01/24 00:53:52;;;;;;;11.25;4.65;;;3.50;99.90;;;;;;10209818;28;20485;-65
2023/01/24 00:58:43;;;;;;;12.32;5.03;;;3.50;99.90;;;;;;10196491;28;20028;-64
2023/01/24 01:03:33;;;;;;;9.35;4.75;;;3.50;99.90;;;;;;10195703;28;20027;-64
2023/01/24 01:08:24;;;;;;;13.57;5.90;;;3.60;99.90;;;;;;10195752;28;20039;-64
2023/01/24 01:13:15;;;;;;;8.85;5.38;;;3.50;99.90;;;;;;10192939;28;20028;-64
2023/01/24 01:18:05;;;;;;;11.80;5.75;;;3.50;99.90;;;;;;10188008;28;20461;-65
2023/01/24 01:22:56;;;;;;;9.90;4.68;;;3.50;99.90;;;;;;10174845;28;20024;-64
2023/01/24 01:27:47;;;;;;;12.30;4.80;;;3.60;99.90;;;;;;10203282;28;20088;-65
2023/01/24 01:32:37;;;;;;;12.45;5.28;;;3.50;99.90;;;;;;10207606;28;20473;-64
2023/01/24 01:37:28;;;;;;;11.40;4.95;;;3.50;99.90;;;;;;10190211;28;20028;-66
2023/01/24 01:42:18;;;;;;;10.23;4.60;;;3.50;99.90;;;;;;10185054;28;20028;-63
2023/01/24 01:47:35;;;;;;;9.45;4.50;;;3.50;99.90;;;;;;10179525;28;20048;-64
2023/01/24 01:52:30;;;;;;;9.02;4.28;;;3.50;99.90;;;;;;10174178;28;20424;-65
2023/01/24 01:57:24;;;;;;;10.80;4.07;;;3.50;99.90;;;;;;10206485;28;20357;-65
2023/01/24 02:02:18;;;;;;;12.38;4.60;;;3.50;99.90;;;;;;10195743;28;20016;-65
2023/01/24 02:07:16;;;;;;;9.35;4.72;;;3.50;99.90;;;;;;10186214;28;20075;-65
2023/01/24 02:12:22;;;;;;;9.85;4.65;;;3.50;99.90;;;;;;10186010;28;20433;-64
2023/01/24 02:17:19;;;;;;;7.72;4.20;;;3.50;99.90;;;;;;10187501;28;20056;-64
2023/01/24 02:22:16;;;;;;;11.38;4.35;;;3.50;99.90;;;;;;10178616;28;20049;-69
2023/01/24 02:27:07;;;;;;;10.20;5.53;;;3.50;99.90;;;;;;10195295;28;20039;-69
2023/01/24 02:32:05;;;;;;;9.13;3.80;;;3.60;99.90;;;;;;10205994;28;20028;-69
2023/01/24 02:37:04;;;;;;;10.85;4.97;;;3.60;99.90;;;;;;10187941;28;20036;-63
2023/01/24 02:42:03;;;;;;;10.07;4.43;;;3.60;99.90;;;;;;10181854;28;20478;-65
2023/01/24 02:46:53;;;;;;;8.63;4.07;;;3.60;99.90;;;;;;10172846;28;20044;-67
2023/01/24 03:02:02;;;;;;;10.77;4.43;;;3.60;99.90;;;;;;10189929;28;20158;-65
2023/01/24 03:06:53;;;;;;;10.25;4.05;;;3.60;99.90;;;;;;10190315;28;20172;-63
2023/01/24 03:11:46;;;;;;;9.40;4.63;;;3.60;99.90;;;;;;10194426;28;20562;-64
2023/01/24 03:37:13;;;;;;;8.75;4.43;;;3.60;99.90;;;;;;10209434;28;20062;-65
2023/01/24 03:42:04;;;;;;;9.40;4.35;;;3.50;99.90;;;;;;10195064;28;20508;-65
2023/01/24 03:46:55;;;;;;;8.35;4.05;;;3.60;99.90;;;;;;10176410;28;20052;-65
2023/01/24 03:56:54;;;;;;;6.82;4.30;;;3.60;99.90;;;;;;10158928;28;20035;-65
2023/01/24 04:01:45;;;;;;;12.02;4.88;;;3.50;99.90;;;;;;10171662;28;20436;-64
2023/01/24 04:06:36;;;;;;;11.43;4.22;;;3.50;99.90;;;;;;10189555;28;20331;-65
2023/01/24 04:11:26;;;;;;;8.85;4.72;;;3.60;99.90;;;;;;10186870;28;20028;-69
2023/01/24 04:16:17;;;;;;;12.90;5.45;;;3.50;99.90;;;;;;10189879;28;20477;-64
2023/01/24 04:21:07;;;;;;;11.40;4.82;;;3.50;99.90;;;;;;10186902;28;20039;-68
2023/01/24 04:26:00;;;;;;;10.27;5.05;;;3.50;99.90;;;;;;10190749;28;20028;-66
2023/01/24 04:31:01;;;;;;;8.88;4.68;;;3.60;99.90;;;;;;10210419;28;20031;-65
2023/01/24 04:35:55;;;;;;;10.10;4.32;;;3.60;99.90;;;;;;10214504;28;20039;-64
2023/01/24 04:40:46;;;;;;;13.82;5.57;;;3.50;99.90;;;;;;10196461;28;20016;-66
2023/01/24 04:45:36;;;;;;;9.38;4.80;;;3.60;99.90;;;;;;10182707;28;20071;-66
2023/01/24 04:50:27;;;;;;;15.48;5.20;;;3.60;99.90;;;;;;10200733;28;20035;-65
2023/01/24 04:55:18;;;;;;;12.40;4.40;;;3.60;99.90;;;;;;10211047;28;20028;-64
2023/01/24 05:00:09;;;;;;;8.25;4.55;;;3.60;99.90;;;;;;10200092;28;20015;-64
2023/01/24 05:05:00;;;;;;;7.50;3.95;;;3.60;99.90;;;;;;10191967;28;20043;-66
2023/01/24 05:09:50;;;;;;;10.98;5.63;;;3.60;99.90;;;;;;10187448;28;20027;-66
2023/01/24 05:14:41;;;;;;;8.15;4.53;;;3.60;99.90;;;;;;10179865;28;20031;-66
2023/01/24 05:19:32;;;;;;;14.45;5.25;;;3.50;99.90;;;;;;10182039;28;20032;-66
2023/01/24 05:24:22;;;;;;;12.20;4.85;;;3.50;99.90;;;;;;10195648;28;20028;-68
2023/01/24 05:29:13;;;;;;;11.27;5.18;;;3.60;99.90;;;;;;10204741;28;20496;-64
2023/01/24 05:34:05;;;;;;;7.68;4.07;;;3.60;99.90;;;;;;10203670;28;20377;-64
2023/01/24 05:38:55;;;;;;;9.13;4.22;;;3.60;99.90;;;;;;10190606;28;20036;-67
2023/01/24 05:43:47;;;;;;;12.68;4.95;;;3.60;99.90;;;;;;10182864;28;20490;-66
2023/01/24 05:48:38;;;;;;;11.07;5.53;;;3.70;99.90;;;;;;10186936;28;20491;-65
2023/01/24 05:53:29;;;;;;;8.65;4.50;;;3.70;99.90;;;;;;10204070;28;20028;-64
2023/01/24 05:58:20;;;;;;;10.27;4.93;;;3.60;99.90;;;;;;10199875;28;20019;-64
2023/01/24 06:03:10;;;;;;;11.52;4.82;;;3.70;99.90;;;;;;10184490;28;20480;-65
2023/01/24 06:08:01;;;;;;;9.60;5.38;;;3.70;99.90;;;;;;10162509;28;20058;-65
2023/01/24 06:12:52;;;;;;;10.32;3.88;;;3.70;99.90;;;;;;10175381;28;20032;-63
2023/01/24 06:17:42;;;;;;;9.40;4.55;;;3.70;99.90;;;;;;10161187;28;20610;-63
2023/01/24 06:22:53;;;;;;;10.13;4.88;;;3.70;99.90;;;;;;10176588;28;20024;-65
2023/01/24 06:27:44;;;;;;;11.77;4.13;;;3.70;99.90;;;;;;10191745;28;20040;-64
2023/01/24 06:32:58;;;;;;;10.52;4.68;;;3.70;99.90;;;;;;10190695;28;20082;-67
2023/01/24 06:37:51;;;;;;;12.90;4.80;;;3.70;99.90;;;;;;10189619;28;20031;-65
2023/01/24 06:42:42;;;;;;;11.55;5.53;;;3.70;99.90;;;;;;10178900;28;20402;-65
2023/01/24 06:47:33;;;;;;;9.65;4.78;;;3.70;99.90;;;;;;10173794;28;20136;-65
2023/01/24 06:52:24;;;;;;;14.27;5.85;;;3.70;99.90;;;;;;10218171;28;20076;-66
2023/01/24 06:57:15;;;;;;;8.18;4.88;;;3.80;99.90;;;;;;10212049;28;20059;-65
2023/01/24 07:02:05;;;;;;;7.15;4.80;;;3.80;99.90;;;;;;10202088;28;20025;-66
2023/01/24 07:06:56;;;;;;;10.73;5.05;;;3.70;99.90;;;;;;10202349;28;20267;-66
2023/01/24 07:11:49;;;;;;;10.70;5.40;;;3.80;99.90;;;;;;10198012;28;20103;-67
2023/01/24 07:16:40;;;;;;;13.20;5.57;;;3.70;99.90;;;;;;10188578;28;20028;-63
2023/01/24 07:21:30;;;;;;;9.18;4.55;;;3.70;99.90;;;;;;10188349;28;20024;-62
2023/01/24 07:26:21;;;;;;;14.55;5.68;;;3.70;99.90;;;;;;10192471;28;20058;-63
2023/01/24 07:31:14;;;;;;;9.88;5.15;;;3.70;99.90;;;;;;10209036;28;20020;-63
2023/01/24 07:36:13;;;;;;;8.85;4.75;;;3.80;99.90;;;;;;10211278;28;20054;-64
2023/01/24 07:41:08;;;;;;;10.70;5.05;;;3.70;99.90;;;;;;10195313;28;20498;-62
2023/01/24 07:45:58;;;;;;;11.05;5.50;;;3.80;99.90;;;;;;10173303;28;20087;-65
2023/01/24 07:50:49;;;;;;;11.38;5.18;;;3.80;99.90;;;;;;10201246;28;20031;-64
2023/01/24 07:55:39;;;;;;;11.23;6.03;;;3.80;99.90;;;;;;10206840;28;20474;-66
2023/01/24 08:00:31;;;;;;;12.23;5.75;;;3.80;99.90;;;;;;10197986;28;20079;-65
2023/01/24 08:05:22;;;;;;;10.82;4.72;;;3.80;99.90;;;;;;10188619;28;20066;-64
2023/01/24 08:10:12;;;;;;;12.18;5.05;;;3.80;99.90;;;;;;10194696;28;20060;-67
2023/01/24 08:15:03;;;;;;;11.20;4.93;;;3.70;99.90;;;;;;10182128;28;20024;-68
2023/01/24 08:19:54;;;;;;;8.73;4.53;;;3.80;99.90;;;;;;10195132;28;20066;-67
2023/01/24 08:24:45;;;;;;;12.30;6.05;;;3.80;99.90;;;;;;10178331;28;20081;-70
2023/01/24 08:29:35;;;;;;;10.18;4.63;;;3.90;99.90;;;;;;10188264;28;20028;-67
2023/01/24 08:34:26;;;;;;;12.55;6.07;;;4.00;99.90;;;;;;10186255;28;20077;-70
2023/01/24 08:39:17;;;;;;;10.50;4.60;;;3.90;99.90;;;;;;10173535;28;20489;-68
2023/01/24 08:44:07;;;;;;;8.63;4.68;;;3.90;99.90;;;;;;10181683;28;20020;-66
2023/01/24 08:48:58;;;;;;;13.50;4.30;;;3.90;99.90;;;;;;10179483;28;20134;-65
2023/01/24 08:53:49;;;;;;;12.70;5.68;;;4.00;99.90;;;;;;10191502;28;20035;-71
2023/01/24 08:58:39;;;;;;;12.07;4.78;;;4.00;99.90;;;;;;10201441;28;20030;-69
2023/01/24 09:03:30;;;;;;;12.15;6.30;;;3.90;99.90;;;;;;10184021;28;20044;-69
2023/01/24 09:08:22;;;;;;;8.55;4.60;;;3.90;99.90;;;;;;10182207;28;20036;-65
2023/01/24 09:13:13;;;;;;;9.85;4.40;;;4.00;99.90;;;;;;10183227;28;20027;-67
2023/01/24 09:18:03;;;;;;;8.82;4.75;;;4.00;99.90;;;;;;10182002;28;20024;-66
2023/01/24 09:22:54;;;;;;;11.43;5.70;;;4.00;99.90;;;;;;10180448;28;20028;-71
2023/01/24 09:27:51;;;;;;;10.13;4.90;;;4.00;99.90;;;;;;10192217;28;20032;-68
2023/01/24 09:32:43;;;;;;;11.40;5.75;;;4.00;99.90;;;;;;10193294;28;20531;-69
2023/01/24 09:37:34;;;;;;;11.85;4.82;;;4.00;99.90;;;;;;10186939;28;20031;-64
2023/01/24 09:42:27;;;;;;;10.68;4.20;;;4.00;99.90;;;;;;10171178;28;20016;-67
2023/01/24 09:47:31;;;;;;;10.88;4.75;;;4.10;99.90;;;;;;10182263;28;20509;-65
2023/01/24 09:52:46;;;;;;;88.18;41.47;;;4.10;99.90;;;;;;10193678;28;20050;-66
2023/01/24 09:57:56;;;;;;;18.85;9.13;;;4.40;99.90;;;;;;10199943;28;20070;-69
2023/01/24 10:02:47;;;;;;;15.00;5.85;;;4.40;99.90;;;;;;10195526;28;20022;-65
2023/01/24 10:07:41;;;;;;;12.90;6.15;;;4.40;99.90;;;;;;10190500;28;20043;-65
2023/01/24 10:12:40;;;;;;;14.18;6.45;;;4.50;99.90;;;;;;10190516;28;20267;-69
2023/01/24 10:17:56;;;;;;;11.18;5.55;;;4.50;99.90;;;;;;10175960;28;20028;-65
2023/01/24 10:23:02;;;;;;;12.73;5.50;;;4.60;99.90;;;;;;10186038;28;20077;-66
2023/01/24 10:27:57;;;;;;;13.52;5.40;;;4.60;99.90;;;;;;10206257;28;20497;-65
2023/01/24 10:32:55;;;;;;;11.60;5.88;;;4.60;99.90;;;;;;10203702;28;20107;-67
2023/01/24 10:37:55;;;;;;;9.38;5.13;;;4.60;99.90;;;;;;10208789;28;20034;-67
2023/01/24 10:42:46;;;;;;;13.35;7.18;;;4.60;99.90;;;;;;10187508;28;20153;-69
2023/01/24 10:47:42;;;;;;;13.60;5.05;;;4.60;99.90;;;;;;10183936;28;20132;-67
2023/01/24 10:52:34;;;;;;;12.02;6.53;;;4.70;99.90;;;;;;10220964;28;20023;-63
2023/01/24 10:57:41;;;;;;;11.05;4.78;;;4.60;99.90;;;;;;10204894;28;20099;-66
2023/01/24 11:02:34;;;;;;;16.33;5.93;;;4.70;99.90;;;;;;10191585;28;20028;-64
2023/01/24 11:07:32;;;;;;;12.73;6.15;;;4.70;99.90;;;;;;10201207;28;20071;-70
2023/01/24 11:12:23;;;;;;;9.65;6.00;;;4.70;99.90;;;;;;10196624;28;20016;-70
2023/01/24 11:17:41;;;;;;;17.30;6.60;;;4.80;99.90;;;;;;10188718;28;20093;-69
2023/01/24 11:22:35;;;;;;;12.27;6.82;;;4.80;99.90;;;;;;10185945;28;20501;-68
2023/01/24 11:27:26;;;;;;;15.35;5.72;;;4.90;99.90;;;;;;10186000;28;20035;-63
2023/01/24 11:32:38;;;;;;;14.15;6.82;;;5.00;99.90;;;;;;10206467;28;20584;-67
2023/01/24 11:37:38;;;;;;;13.90;6.32;;;5.00;99.90;;;;;;10197818;28;20076;-65
2023/01/24 11:42:52;;;;;;;12.38;6.80;;;4.90;99.90;;;;;;10175721;28;20107;-65
2023/01/24 11:48:04;;;;;;;12.02;5.68;;;5.00;99.90;;;;;;10146905;28;20088;-65
2023/01/24 11:53:22;;;;;;;12.05;5.88;;;5.10;99.90;;;;;;10150903;28;20067;-67
2023/01/24 11:58:16;;;;;;;12.15;5.72;;;5.10;99.90;;;;;;10198709;27;20377;-73
2023/01/24 12:03:31;;;;;;;11.15;5.60;;;5.10;99.90;;;;;;10190024;28;20375;-68
2023/01/24 12:08:59;;;;;;;11.40;5.50;;;5.10;99.90;;;;;;10177015;28;20032;-66
2023/01/24 12:14:08;;;;;;;13.13;5.95;;;5.10;99.90;;;;;;10172826;28;20024;-68
2023/01/24 12:19:09;;;;;;;13.02;5.60;;;5.10;99.90;;;;;;10182519;27;20035;-68
2023/01/24 12:24:02;;;;;;;12.50;6.13;;;5.20;99.90;;;;;;10169436;28;20043;-69
2023/01/24 12:29:02;;;;;;;13.27;6.25;;;5.30;99.90;;;;;;10162237;28;20035;-67
2023/01/24 12:34:34;;;;;;;12.88;5.95;;;5.30;99.90;;;;;;10151974;28;20032;-67
2023/01/24 12:39:47;;;;;;;12.23;5.75;;;5.30;99.90;;;;;;10157371;28;20123;-68
2023/01/24 12:44:45;;;;;;;12.93;6.13;;;5.30;99.90;;;;;;10170627;28;20536;-71
2023/01/24 12:50:16;;;;;;;11.73;5.50;;;5.40;99.90;;;;;;10194266;28;20054;-68
2023/01/24 12:55:13;;;;;;;11.45;6.00;;;5.40;99.90;;;;;;10211481;28;20019;-71
2023/01/24 13:00:13;;;;;;;10.57;5.65;;;5.60;99.90;;;;;;10207275;28;20154;-71
2023/01/24 13:05:28;;;;;;;11.80;6.00;;;5.40;99.90;;;;;;10192787;28;20108;-71
2023/01/24 13:10:28;;;;;;;10.15;5.93;;;5.40;99.90;;;;;;10203478;27;20076;-68
2023/01/24 13:15:26;;;;;;;10.80;5.03;;;5.40;99.90;;;;;;10180782;28;20617;-68
2023/01/24 13:20:31;;;;;;;13.30;5.80;;;5.40;99.90;;;;;;10183785;28;20021;-66
2023/01/24 13:25:49;;;;;;;9.75;5.50;;;5.40;99.90;;;;;;10181122;28;20028;-67
2023/01/24 13:31:13;;;;;;;9.77;5.18;;;5.40;99.90;;;;;;10209406;28;20048;-67
2023/01/24 13:36:06;;;;;;;10.73;4.82;;;5.30;99.90;;;;;;10204274;28;20020;-67
2023/01/24 13:41:03;;;;;;;12.77;5.43;;;5.30;99.90;;;;;;10189037;28;20028;-67
2023/01/24 13:45:54;;;;;;;11.00;5.22;;;5.20;99.90;;;;;;10168129;28;20302;-67
2023/01/24 13:51:16;;;;;;;8.95;4.82;;;5.30;99.90;;;;;;10196631;28;20071;-68
2023/01/24 13:56:07;;;;;;;10.00;4.50;;;5.30;99.90;;;;;;10186919;28;20020;-66
2023/01/24 14:00:59;;;;;;;6.95;3.92;;;5.20;99.90;;;;;;10203828;28;20443;-68
2023/01/24 14:05:54;;;;;;;10.25;5.25;;;5.20;99.90;;;;;;10191207;28;20043;-68
2023/01/24 14:10:48;;;;;;;8.32;4.60;;;5.20;99.90;;;;;;10195242;28;20023;-69
2023/01/24 14:15:41;;;;;;;12.20;4.32;;;5.30;99.90;;;;;;10172714;28;20068;-73
2023/01/24 14:20:45;;;;;;;9.45;5.00;;;5.30;99.90;;;;;;10180955;28;20428;-75
2023/01/24 14:25:46;;;;;;;10.43;4.88;;;5.20;99.90;;;;;;10175064;28;20087;-72
2023/01/24 14:30:42;;;;;;;16.77;5.25;;;5.20;99.90;;;;;;10185755;28;20042;-75
2023/01/24 14:35:50;;;;;;;11.60;4.53;;;5.20;99.90;;;;;;10194738;28;20055;-73
2023/01/24 14:40:41;;;;;;;10.90;4.60;;;5.20;99.90;;;;;;10190672;28;20028;-72
2023/01/24 14:45:33;;;;;;;9.23;5.53;;;5.30;99.90;;;;;;10160417;28;20044;-69
2023/01/24 14:50:27;;;;;;;11.23;4.25;;;5.10;99.90;;;;;;10185401;28;20408;-71
2023/01/24 14:55:23;;;;;;;12.52;5.50;;;5.10;99.90;;;;;;10205168;28;20556;-67
2023/01/24 15:00:17;;;;;;;10.18;4.45;;;5.00;99.90;;;;;;10204308;28;20028;-65
2023/01/24 15:05:24;;;;;;;14.50;7.15;;;5.00;99.90;;;;;;10198713;28;20499;-68
2023/01/24 15:10:15;;;;;;;9.75;4.53;;;5.00;99.90;;;;;;10199116;28;20447;-70
2023/01/24 15:15:11;;;;;;;11.52;4.60;;;4.90;99.90;;;;;;10195925;28;20069;-74
2023/01/24 15:20:10;;;;;;;9.45;4.72;;;4.80;99.90;;;;;;10193933;28;20421;-68
2023/01/24 15:25:01;;;;;;;12.32;4.97;;;4.80;99.90;;;;;;10193157;28;20484;-77
2023/01/24 15:30:16;;;;;;;12.43;4.95;;;4.80;99.90;;;;;;10202463;28;20039;-70
2023/01/24 15:35:22;;;;;;;9.10;4.50;;;4.80;99.90;;;;;;10190752;28;20028;-75
2023/01/24 15:40:21;;;;;;;8.98;4.72;;;4.80;99.90;;;;;;10194815;28;20031;-67
2023/01/24 15:45:18;;;;;;;7.20;4.05;;;4.80;99.90;;;;;;10188369;28;20414;-70
2023/01/24 15:55:30;;;;;;;7.63;4.15;;;4.80;99.90;;;;;;10185200;28;20092;-71
2023/01/24 16:00:23;;;;;;;10.57;5.40;;;4.80;99.90;;;;;;10189823;28;20177;-70
2023/01/24 16:05:16;;;;;;;12.88;5.65;;;4.70;99.90;;;;;;10185271;28;20114;-70
2023/01/24 16:10:17;;;;;;;11.48;4.88;;;4.70;99.90;;;;;;10201962;28;20024;-67
2023/01/24 16:15:19;;;;;;;9.35;4.47;;;4.70;99.90;;;;;;10196646;28;20492;-67
2023/01/24 16:20:28;;;;;;;12.77;6.32;;;4.60;99.90;;;;;;10189656;28;20142;-64
2023/01/24 16:25:20;;;;;;;11.38;5.00;;;4.60;99.90;;;;;;10166458;28;20027;-69
2023/01/24 16:30:20;;;;;;;10.55;4.50;;;4.60;99.90;;;;;;10182975;28;20039;-70
2023/01/24 16:35:11;;;;;;;12.38;5.45;;;4.50;99.90;;;;;;10201148;28;20027;-65
2023/01/24 16:40:02;;;;;;;12.05;5.05;;;4.50;99.90;;;;;;10163081;28;20035;-70
2023/01/24 16:44:56;;;;;;;8.88;4.30;;;4.50;99.90;;;;;;10183138;28;20422;-65
2023/01/24 16:49:50;;;;;;;9.95;4.80;;;4.60;99.90;;;;;;10190649;28;20028;-62
2023/01/24 16:54:41;;;;;;;9.27;4.28;;;4.50;99.90;;;;;;10191193;28;20032;-69
2023/01/24 16:59:32;;;;;;;10.25;4.32;;;4.40;99.90;;;;;;10180050;28;20119;-61
2023/01/24 17:04:22;;;;;;;7.82;4.25;;;4.40;99.90;;;;;;10187658;28;20036;-63
2023/01/24 17:09:13;;;;;;;8.50;4.68;;;4.40;99.90;;;;;;10180880;28;20047;-65
2023/01/24 17:14:04;;;;;;;8.15;4.38;;;4.40;99.90;;;;;;10194716;28;20032;-66
2023/01/24 17:18:54;;;;;;;9.23;3.88;;;4.40;99.90;;;;;;10192732;28;20024;-66
2023/01/24 17:23:45;;;;;;;12.10;4.68;;;4.40;99.90;;;;;;10196048;28;20489;-63
2023/01/24 17:28:37;;;;;;;9.23;4.60;;;4.40;99.90;;;;;;10189509;28;20036;-63
2023/01/24 17:33:27;;;;;;;9.98;4.80;;;4.40;99.90;;;;;;10181228;28;20200;-64
2023/01/24 17:38:18;;;;;;;8.20;3.72;;;4.40;99.90;;;;;;10199885;28;20161;-64
2023/01/24 17:43:09;;;;;;;12.70;5.95;;;4.40;99.90;;;;;;10179142;28;20202;-63
2023/01/24 17:47:59;;;;;;;14.90;4.82;;;4.30;99.90;;;;;;10187061;28;20135;-64
2023/01/24 17:52:51;;;;;;;11.52;4.55;;;4.30;99.90;;;;;;10185656;28;20062;-64
2023/01/24 17:57:43;;;;;;;8.98;4.28;;;4.30;99.90;;;;;;10187899;28;20039;-64
2023/01/24 18:02:33;;;;;;;10.43;4.95;;;4.30;99.90;;;;;;10181551;28;20020;-64
2023/01/24 18:07:24;;;;;;;11.50;4.90;;;4.20;99.90;;;;;;10208953;28;20028;-64
2023/01/24 18:12:14;;;;;;;11.15;4.10;;;4.30;99.90;;;;;;10194651;28;20312;-65
2023/01/24 18:17:05;;;;;;;7.72;4.68;;;4.20;99.90;;;;;;10192355;28;20446;-64
2023/01/24 18:21:56;;;;;;;12.60;5.88;;;4.30;99.90;;;;;;10193569;28;20035;-65
2023/01/24 18:26:46;;;;;;;12.13;5.03;;;4.20;99.90;;;;;;10188020;28;20036;-64
2023/01/24 18:31:37;;;;;;;12.25;5.28;;;4.20;99.90;;;;;;10176995;28;20039;-64
2023/01/24 18:36:28;;;;;;;10.30;4.85;;;4.20;99.90;;;;;;10200277;28;20063;-64
2023/01/24 18:41:19;;;;;;;14.32;5.85;;;4.30;99.90;;;;;;10199515;28;20068;-65
2023/01/24 18:46:12;;;;;;;9.93;5.55;;;4.20;99.90;;;;;;10210609;28;20047;-65
2023/01/24 18:51:09;;;;;;;11.88;5.63;;;4.20;99.90;;;;;;10197930;28;20028;-66
2023/01/24 18:56:01;;;;;;;9.73;4.97;;;4.20;99.90;;;;;;10197113;28;20040;-65
2023/01/24 19:00:52;;;;;;;11.35;5.55;;;4.20;99.90;;;;;;10191625;28;20293;-65
2023/01/24 19:05:44;;;;;;;16.65;7.57;;;4.30;99.90;;;;;;10214067;28;20033;-66
2023/01/24 19:10:34;;;;;;;7.20;5.10;;;4.30;99.90;;;;;;10199079;28;20057;-64
2023/01/24 19:15:25;;;;;;;10.38;5.35;;;4.30;99.90;;;;;;10194497;28;20035;-65
2023/01/24 19:20:17;;;;;;;11.35;5.32;;;4.20;99.90;;;;;;10203500;28;20367;-66
2023/01/24 19:25:08;;;;;;;13.35;5.70;;;4.30;99.90;;;;;;10198195;28;20032;-64
2023/01/24 19:29:58;;;;;;;10.18;5.63;;;4.30;99.90;;;;;;10192083;28;20559;-65
2023/01/24 19:34:49;;;;;;;11.07;6.13;;;4.30;99.90;;;;;;10198643;28;20023;-65
2023/01/24 19:39:40;;;;;;;9.75;4.50;;;4.30;99.90;;;;;;10210063;28;20102;-65
2023/01/24 19:44:30;;;;;;;11.45;6.88;;;4.30;99.90;;;;;;10183840;28;20071;-65
2023/01/24 19:49:21;;;;;;;9.65;5.13;;;4.20;99.90;;;;;;10178553;28;20476;-65
2023/01/24 19:54:12;;;;;;;8.60;5.82;;;4.30;99.90;;;;;;10180955;28;20237;-65
2023/01/24 19:59:03;;;;;;;10.32;5.97;;;4.30;99.90;;;;;;10191608;28;20069;-63
2023/01/24 20:03:57;;;;;;;10.38;5.22;;;4.20;99.90;;;;;;10209771;28;20027;-64
2023/01/24 20:08:52;;;;;;;9.23;5.38;;;4.20;99.90;;;;;;10197936;28;20024;-65
2023/01/24 20:13:43;;;;;;;12.80;5.78;;;4.20;99.90;;;;;;10189276;28;20112;-65
2023/01/24 20:18:34;;;;;;;10.43;5.20;;;4.20;99.90;;;;;;10201038;28;20052;-64
2023/01/24 20:23:25;;;;;;;10.40;4.85;;;4.30;99.90;;;;;;10193188;28;20035;-64
2023/01/24 20:28:17;;;;;;;15.45;5.82;;;4.30;99.90;;;;;;10189306;28;20051;-65
2023/01/24 20:33:08;;;;;;;11.70;5.05;;;4.20;99.90;;;;;;10189277;28;20503;-64
2023/01/24 20:37:58;;;;;;;17.30;6.55;;;4.20;99.90;;;;;;10196232;28;20024;-65
2023/01/24 20:42:49;;;;;;;13.73;5.43;;;4.30;99.90;;;;;;10196820;28;20039;-66
2023/01/24 20:47:39;;;;;;;10.80;5.85;;;4.20;99.90;;;;;;10203524;28;20055;-65
2023/01/24 20:52:30;;;;;;;12.25;6.05;;;4.20;99.90;;;;;;10187669;28;20055;-64
2023/01/24 20:57:22;;;;;;;12.05;5.53;;;4.30;99.90;;;;;;10189520;28;20031;-63
2023/01/24 21:02:12;;;;;;;11.90;6.03;;;4.20;99.90;;;;;;10200363;28;20020;-66
2023/01/24 21:07:03;;;;;;;11.75;5.75;;;4.20;99.90;;;;;;10208256;28;20041;-67
2023/01/24 21:11:54;;;;;;;7.85;5.32;;;4.30;99.90;;;;;;10205650;28;20550;-65
2023/01/24 21:16:45;;;;;;;16.42;6.30;;;4.20;99.90;;;;;;10202430;28;20032;-65
2023/01/24 21:21:35;;;;;;;8.18;4.95;;;4.20;99.90;;;;;;10173236;28;20031;-64
2023/01/24 21:26:26;;;;;;;10.15;5.45;;;4.20;99.90;;;;;;10188650;28;20039;-65
2023/01/24 21:31:19;;;;;;;12.85;5.82;;;4.20;99.90;;;;;;10183311;28;20031;-65
2023/01/24 21:36:14;;;;;;;16.75;6.32;;;4.30;99.90;;;;;;10199379;28;20027;-66
2023/01/24 21:46:16;;;;;;;14.65;5.47;;;4.30;99.90;;;;;;10197358;28;20094;-65
2023/01/24 21:51:10;;;;;;;12.23;5.30;;;4.20;99.90;;;;;;10187161;28;20020;-63
2023/01/24 21:58:00;;;;;;;9.93;4.47;;;4.20;99.90;;;;;;10179623;28;20034;-65
2023/01/24 22:01:11;;;;;;;11.27;5.30;;;4.20;99.90;;;;;;10187863;28;20058;-64
2023/01/24 22:06:03;;;;;;;14.00;6.63;;;4.30;99.90;;;;;;10205281;28;20055;-65
2023/01/24 22:10:57;;;;;;;11.57;4.95;;;4.20;99.90;;;;;;10188404;28;20442;-66
2023/01/24 22:15:47;;;;;;;8.35;5.22;;;4.20;99.90;;;;;;10198551;28;20027;-65
2023/01/24 22:20:38;;;;;;;9.45;5.18;;;4.20;99.90;;;;;;10194467;28;20122;-65
2023/01/24 22:25:50;;;;;;;11.70;5.32;;;4.20;99.90;;;;;;10195975;28;20393;-66
2023/01/24 22:30:41;;;;;;;10.68;4.53;;;4.20;99.90;;;;;;10187666;28;20032;-65
2023/01/24 22:35:32;;;;;;;10.00;5.40;;;4.20;99.90;;;;;;10204927;28;20095;-66
2023/01/24 22:40:23;;;;;;;8.95;6.70;;;4.20;99.90;;;;;;10206641;28;20133;-65
2023/01/24 22:45:15;;;;;;;12.98;5.78;;;4.20;99.90;;;;;;10201781;28;20028;-66
2023/01/24 22:50:06;;;;;;;11.57;4.57;;;4.30;99.90;;;;;;10198176;28;20393;-65
2023/01/24 22:54:56;;;;;;;8.75;3.97;;;4.20;99.90;;;;;;10195220;28;20141;-64
2023/01/24 22:59:47;;;;;;;8.55;4.10;;;4.10;99.90;;;;;;10192099;28;20047;-66
2023/01/24 23:04:38;;;;;;;9.55;4.53;;;4.10;99.90;;;;;;10216047;28;20024;-67
2023/01/24 23:09:29;;;;;;;12.10;4.50;;;4.20;99.90;;;;;;10212867;28;20039;-65
2023/01/24 23:24:47;;;;;;;9.43;4.22;;;4.20;99.90;;;;;;10195455;28;20154;-64
2023/01/24 23:29:48;;;;;;;9.65;4.85;;;4.20;99.90;;;;;;10187850;28;20126;-64
2023/01/24 23:34:40;;;;;;;8.98;4.22;;;4.20;99.90;;;;;;10194331;28;20479;-64
2023/01/24 23:39:31;;;;;;;10.15;4.65;;;4.20;99.90;;;;;;10197742;28;20097;-65
2023/01/24 23:44:21;;;;;;;9.40;5.85;;;4.20;99.90;;;;;;10195777;28;20048;-66
2023/01/24 23:49:12;;;;;;;12.60;4.68;;;4.10;99.90;;;;;;10189255;28;20036;-64
2023/01/24 23:54:03;;;;;;;13.32;5.63;;;4.10;99.90;;;;;;10190326;28;20061;-62
2023/01/24 23:58:53;;;;;;;9.13;4.50;;;4.10;99.90;;;;;;10201209;28;20058;-63
